Detalii statie CEREAMIN SMEENI [00001CFD]

Toti senzorii

Date Temperatura solului [C]Precipitatii [mm]Voltaj baterie [mV]Leaf Wetness [Min]HC Air temperature [C]HC Relative humidity [%]Punctul de roua [C]
medieminmaxsumaultimatimpmedieminmaxmediemediemin
2020-01-25 15:00:00 -0.2 -0.3 -0.2 0 7294 10.48 10.02 10.76 26.19 -8.2 -9.2
2020-01-25 16:00:00 -0.2 -0.3 -0.1 0 7254 9.73 8.55 10.34 30.23 -7.1 -7.8
2020-01-25 17:00:00 -0.2 -0.4 -0.2 0 7108 7.38 6.23 8.57 37.52 -6.2 -6.7
2020-01-25 18:00:00 -0.2 -0.3 -0.1 0 7020 4.9 4.14 5.98 44.53 -6.2 -6.5
2020-01-25 19:00:00 -0.2 -0.3 -0.2 0 6992 3.78 3.29 4.52 48.64 -6 -6.4
2020-01-25 20:00:00 -0.2 -0.3 -0.2 0 6962 2.87 1.96 3.64 51.15 -6.2 -6.5
2020-01-25 21:00:00 -0.2 -0.3 -0.2 0 6962 2.38 2.02 3.2 50.99 -6.7 -7.2
2020-01-25 22:00:00 -0.2 -0.3 -0.1 0 6942 2.38 1.4 4.14 51.39 -6.6 -7.4
2020-01-25 23:00:00 -0.2 -0.3 -0.2 0 6942 1.89 0.66 2.81 61.49 -4.7 -6.5
2020-01-26 00:00:00 -0.2 -0.3 -0.1 0 6932 0.26 -0.4 0.82 71.33 -4.3 -4.7
2020-01-26 01:00:00 -0.2 -0.4 -0.2 0 6922 -0.7 -1.07 -0.03 72.63 -4.9 -5.3
2020-01-26 02:00:00 -0.2 -0.3 -0.1 0 6914 -0.31 -1.87 0.84 66.97 -5.7 -6.6
2020-01-26 03:00:00 -0.2 -0.4 -0.2 0 6914 -0.79 -2.1 0.65 64.18 -6.7 -6.9
2020-01-26 04:00:00 -0.2 -0.3 -0.2 0 6904 -2.33 -3.01 -1.72 71.63 -6.6 -7
2020-01-26 05:00:00 -0.3 -0.4 -0.2 0 6894 -3.09 -4 -2.39 75.12 -6.8 -7.5
2020-01-26 06:00:00 -0.2 -0.4 -0.2 0 6884 -4.01 -4.43 -3.39 79.15 -7 -7.5
2020-01-26 07:00:00 -0.3 -0.4 -0.3 0 6874 -3.92 -4.46 -3.25 80.89 -6.6 -7
2020-01-26 08:00:00 -0.3 -0.4 -0.1 0 6864 -3.04 -3.49 -2.63 77.3 -6.3 -6.7
2020-01-26 09:00:00 -0.3 -0.5 -0.3 0 6932 -2.4 -3.52 -1.2 79.1 -5.4 -6.5
2020-01-26 10:00:00 -0.3 -0.4 -0.1 0 7254 0.42 -1.09 1.81 78.23 -2.9 -4.2
2020-01-26 11:00:00 -0.3 -0.4 -0.3 0 7304 3.73 1.67 5.72 65.93 -2.1 -2.6
2020-01-26 12:00:00 -0.3 -0.4 -0.3 0 7304 7.26 6.02 8.61 49.4 -2.7 -3
2020-01-26 13:00:00 -0.3 -0.4 -0.3 0 7304 9.78 8.92 10.71 38.74 -3.6 -4.1
2020-01-26 14:00:00 -0.3 -0.4 -0.3 0 7304 10.69 10.26 11.27 36.56 -3.6 -3.9
2020-01-26 15:00:00 -0.3 -0.4 -0.3 0 7304 10.45 10.17 10.73 38.36 -3.2 -3.5
2020-01-26 16:00:00 -0.3 -0.4 -0.3 0 7264 9.61 8.71 10.02 40.85 -3.1 -3.3
2020-01-26 17:00:00 -0.3 -0.4 -0.2 0 7118 6.74 4.52 8.5 50.38 -2.9 -3.3
2020-01-26 18:00:00 -0.3 -0.4 -0.2 0 7040 2.1 0.96 3.74 68.11 -3.2 -3.6
2020-01-26 19:00:00 -0.3 -0.4 -0.1 0 6992 0.86 0.53 1.25 76.75 -2.7 -3.5
2020-01-26 20:00:00 -0.3 -0.4 -0.2 0 6962 0.37 -0.36 1.08 76.21 -3.3 -3.6
2020-01-26 21:00:00 -0.3 -0.4 -0.3 0 6942 -0.88 -1.7 0.16 80.56 -3.7 -4.3
2020-01-26 22:00:00 -0.3 -0.4 -0.3 0 6922 -1.27 -1.95 -0.71 80.95 -4 -4.9
2020-01-26 23:00:00 -0.2 -0.4 -0.1 0 6922 -1.24 -1.54 -0.89 79.61 -4.2 -4.6
2020-01-27 00:00:00 -0.2 -0.3 -0.2 0 6914 -1.32 -1.88 -0.93 79.74 -4.3 -4.7
2020-01-27 01:00:00 -0.2 -0.4 -0.1 0 6914 -1.37 -1.9 -0.88 79.79 -4.3 -4.6
2020-01-27 02:00:00 -0.2 -0.3 -0.2 0 6904 -2.41 -3.05 -1.94 85.44 -4.4 -5.1
2020-01-27 03:00:00 -0.3 -0.4 -0.2 0 6904 -2.08 -2.74 -1.59 85.89 -4 -4.8
2020-01-27 04:00:00 -0.2 -0.5 -0.1 0 6884 -2.32 -2.93 -1.62 86.9 -4.1 -4.7
2020-01-27 05:00:00 -0.3 -0.4 -0.2 0 6884 -2.74 -3.04 -2.28 90.06 -4.1 -4.5
2020-01-27 06:00:00 -0.3 -0.4 -0.3 0 6874 -2.97 -3.37 -2.52 93.15 -3.8 -4.6
2020-01-27 07:00:00 -0.3 -0.4 -0.3 0 6864 -3.29 -3.71 -2.8 95.22 -3.8 -4.4
2020-01-27 08:00:00 -0.3 -0.4 -0.3 0 6864 -3.61 -4.44 -2.91 96.79 -3.9 -5.2
2020-01-27 09:00:00 -0.3 -0.5 -0.2 0 6962 -3.56 -4.17 -2.82 97.61 -3.8 -4.7
2020-01-27 10:00:00 -0.3 -0.4 -0.3 0 7304 -0.52 -2.44 1.56 92.71 -1.5 -2.7
2020-01-27 11:00:00 -0.3 -0.4 -0.3 0 7304 3.58 1.89 4.85 80.3 0.3 -0.5
2020-01-27 12:00:00 -0.3 -0.5 -0.3 0 7314 5.97 4.96 7.11 74.34 1.6 0.9
2020-01-27 13:00:00 -0.3 -0.5 -0.3 0 7304 8.48 7.55 9.19 65.11 2.1 2
2020-01-27 14:00:00 -0.3 -0.4 -0.2 0 7294 8.81 8.4 9.39 62.79 1.9 1.7